MyTimes logo

TIMES

Webb Imagery

5/02/2000
Channel Challenge
550m Swim / 2.0km Run - Local Residents

(Click on competitor name to view personalised results)

Name
Race #
Category
Time
(h:mm:ss)
Avg Speed
km/hr
OAll
Place
Cat
Place
YUSKO Bill#323Local 40+ Male0:14:21 10.7 11
DALLINGER Chris#10Local Senior Male0:14:27 10.6 21
FLEISNER Rob#312Local 40+ Male0:14:36 10.5 32
YUSKO Daniel#335Local Junior Male0:14:36 10.5 41
GROSS Mark#106Local Senior Male0:14:37 10.5 52
RINGROSE Glyndyn#206Local Senior Male0:14:47 10.3 63
SPOTTISWOOD James#334Local Junior Male0:15:22 10 72
HARBISON Derek#103Local Senior Male0:15:29 9.9 84
HEWETT Noel#13Local Senior Male0:15:35 9.8 95
DALLINGER Andrew#26Local Senior Male0:15:37 9.8 106
STERLAND Chantelle#492Local Senior Female0:15:53 9.6 111
MARSHALL Luke#17Local Senior Male0:16:12 9.4 127
WRIGHT Ryan#532Local Junior Male0:16:17 9.4 133
JAMES Dylon#462Local Junior Male0:16:17 9.4 144
TREVENA Martin#33Local Senior Male0:16:19 9.4 158
JUDD Gary#463Local 40+ Male0:16:19 9.4 163
BURT Ainslee#468Local Junior Female0:16:21 9.4 171
BRADEN Michael#7Local Senior Male0:16:32 9.3 189
ROLLAND Thierry#23Local Senior Male0:16:35 9.2 1910
TAYLOR Graham#51Local Senior Male0:16:40 9.2 2011
BARRY'MAC David#403Local Junior Male0:16:41 9.2 215
HACKETT John#187Local Senior Male0:16:51 9.1 2212
KENT Ryan#331Local Junior Male0:16:53 9.1 236
MACMILLAN Matthew#111Local Senior Male0:16:54 9.1 2413
MASON John#482Local 40+ Male0:17:00 9 254
WYNNE Simon#85Local Senior Male0:17:02 9 2614
DAFF Jessica#461Local Senior Female0:17:10 8.9 272
STEVIC Michael#377Local 40+ Male0:17:12 8.9 285
MILLER Todd#101Local Senior Male0:17:16 8.9 2915
BERESFORD Jason#79Local Senior Male0:17:24 8.8 3016
BROWN Matthew#330Local Junior Male0:17:25 8.8 317
DAFF Geoff#426Local 40+ Male0:17:25 8.8 326
MCHENRY Andrew#494Local Junior Male0:17:32 8.7 338
EVANS Bree#324Local Junior Female0:17:41 8.7 342
PRETTY Klete#402Local Junior Male0:17:45 8.6 359
FISHER Kevin#97Local Senior Male0:17:46 8.6 3617
WHITEHOUSE Richard#546Local 40+ Male0:17:46 8.6 377
SUNDERLAND Peter#375Local 40+ Male0:17:50 8.6 388
MCHENRY Simon#493Local Junior Male0:17:51 8.6 3910
ZOANETTI Luke#464Local Junior Male0:17:52 8.6 4011
FAIRTHORNE Mark#87Local Senior Male0:17:56 8.5 4118
DALLINGER Brian#310Local 40+ Male0:17:56 8.5 429
CAMPBELL Chunk#457Local Junior Male0:17:56 8.5 4312
KEADY Richard#317Local 40+ Male0:18:13 8.4 4410
MARUM Ellyce#518Local Junior Female0:18:22 8.3 453
MANNING Simon#19Local Senior Male0:18:26 8.3 4619
WILLIAMS Dwayne#512Local Junior Male0:18:33 8.2 4713
DOOM Kathy#337Local Senior Female0:18:41 8.2 483
TANCHEFF Brian#486Local 40+ Male0:18:41 8.2 4911
ADAMS Simon#113Local Senior Male0:18:53 8.1 5020
MATTHEWS Robert#319Local 40+ Male0:19:01 8 5112
MARUM Justine#517Local Junior Female0:19:05 8 524
KIMMINS Rod#522Local 40+ Male0:19:09 8 5313
CAMERON Jane#459Local Senior Female0:19:15 7.9 544
FLEISNER Paul#313Local 40+ Male0:19:18 7.9 5514
THOMAS Elenor#520Local Junior Female0:19:22 7.9 565
EDEN Shea#162Local Senior Male0:19:28 7.9 5721
BARRY Lawri#438Local Senior Female0:19:33 7.8 585
BARRY Karina#437Local Senior Female0:19:34 7.8 596
JOHNSTON John#177Local Senior Male0:19:35 7.8 6022
SCOTT Ash#121Local Senior Male0:19:45 7.7 6123
YUSKO Imogen#329Local Junior Female0:19:46 7.7 626
BROWNE Daryl#43Local Senior Male0:19:51 7.7 6324
VAN BREEMAN Deanne#385Local Senior Female0:19:52 7.7 647
CHALLINOR Michael#204Local Senior Male0:19:56 7.7 6525
PEART Jessica#503Local Senior Female0:19:58 7.7 668
CHASTON Peter#521Local 40+ Male0:20:03 7.6 6715
RODGERS Adam#333Local Junior Male0:20:19 7.5 6814
SUNDERLAND Carla#534Local Senior Female0:20:20 7.5 699
CHAPMAN Wayne#132Local Senior Male0:20:30 7.5 7026
HUNTRISS Nicole#340Local Senior Female0:20:37 7.4 7110
PATKIN Sally#453Local Senior Female0:20:42 7.4 7211
FREEMAN Heather#497Local Senior Female0:20:42 7.4 7312
TAYLOR Rick#428Local Senior Male0:20:53 7.3 7427
MURPHY Adam#401Local Junior Male0:21:00 7.3 7515
GILBERT Ben#502Local Junior Male0:21:09 7.2 7616
JOHNSTON Brian#316Local 40+ Male0:21:15 7.2 7716
SWINDLEY David#32Local Senior Male0:21:27 7.1 7828
ROOKS David#27Local Senior Male0:21:52 7 7929
CRUICHSHANK Kate#500Local Junior Female0:22:10 6.9 807
BURROWS Karen#356Local Senior Female0:22:24 6.8 8113
PRENDERGAST Kevin#320Local 40+ Male0:22:28 6.8 8217
WALKER Christine#362Local 40+ Female0:22:31 6.8 831
WILLIAMS Estelle#514Local Junior Female0:22:31 6.8 848
HOPKINS Barry#425Local 40+ Male0:22:35 6.8 8518
WILSON Noni#519Local Junior Female0:22:37 6.8 869
LAWSON Simone#378Local Senior Female0:22:47 6.7 8714
HUGHES Bronwyn#397Local 40+ Female0:23:11 6.6 882
WRIGHT P#531Local 40+ Male0:23:19 6.6 8919
BREWIN Cathy#557Local Senior Female0:23:22 6.5 9015
ALCOCK Sue#357Local Senior Female0:23:40 6.5 9116
BREWIN Dennis#545Local 40+ Male0:24:14 6.3 9220
BUGBIRD Scott#56Local Senior Male0:24:47 6.2 9330
COLEMAN Mark#38Local Senior Male0:25:12 6.1 9431
HANNON Bhavani#355Local Senior Female0:25:23 6 9517
WEIR Kobey#436Local Junior Female0:25:30 6 9610
REEK George#454Local 40+ Male0:26:12 5.8 9721
TAYLOR Sarah#435Local Junior Female0:26:29 5.8 9811
JENSCH Peter#445Local 40+ Male0:27:10 5.6 9922
DUNCAN Leah#516Local Junior Female0:27:36 5.5 10012
GILES Helen#471Local 40+ Female0:27:49 5.5 1013
JONES Lyndon#105Local Senior Male0:28:42 5.3 10232
MAKI Leela#364Local 40+ Female0:32:31 4.7 1034
SAGE Albert#374Local 40+ Male0:35:02 4.4 10423
WEIR Warren#434Local 40+ Male0:35:06 4.4 10524
CASEY Elizabeth#396Local 40+ Female0:52:22 2.9 1065